createdAt,value
2018-10-18T10:15:42.326Z,14.60
2018-10-18T10:16:42.273Z,13.70
2018-10-18T10:17:42.349Z,12.50
2018-10-18T10:18:42.206Z,13.40
2018-10-18T10:19:42.171Z,11.90
2018-10-18T10:20:42.131Z,12.30
2018-10-18T10:21:42.094Z,11.90
2018-10-18T10:22:42.090Z,11.50
2018-10-18T10:23:42.031Z,11.50
2018-10-18T10:24:42.062Z,12.40
2018-10-18T10:25:41.956Z,10.90
2018-10-18T10:26:41.927Z,11.20
2018-10-18T10:27:41.922Z,11.30
2018-10-18T10:28:41.863Z,10.70
2018-10-18T10:29:41.881Z,10.60
2018-10-18T10:30:41.805Z,10.50
2018-10-18T10:31:41.763Z,10.70
2018-10-18T10:32:41.769Z,10.20
2018-10-18T10:33:41.714Z,9.60
2018-10-18T10:34:41.664Z,9.00
2018-10-18T10:35:41.631Z,9.70
2018-10-18T10:36:41.595Z,10.50
2018-10-18T10:37:41.567Z,8.50
2018-10-18T10:38:41.618Z,10.00
2018-10-18T10:39:41.490Z,9.20
2018-10-18T10:40:41.464Z,9.20
2018-10-18T10:41:41.436Z,9.90
2018-10-18T10:42:41.528Z,9.00
2018-10-18T10:43:41.371Z,8.40
2018-10-18T10:44:41.368Z,8.10
2018-10-18T10:45:41.387Z,7.90
2018-10-18T10:46:41.265Z,8.00
2018-10-18T10:47:41.228Z,8.20
2018-10-18T10:48:41.205Z,8.20
2018-10-18T10:49:41.194Z,8.70
2018-10-18T10:50:41.147Z,8.80
2018-10-18T10:51:41.111Z,7.60
2018-10-18T10:52:41.067Z,7.40
2018-10-18T10:53:41.045Z,7.10
2018-10-18T10:54:41.036Z,6.80
2018-10-18T10:55:40.983Z,6.20
2018-10-18T10:56:40.942Z,6.60
2018-10-18T10:57:40.912Z,6.40
2018-10-18T10:58:40.878Z,6.50
2018-10-18T10:59:40.866Z,6.60
2018-10-18T11:00:40.820Z,6.20
2018-10-18T11:01:40.787Z,6.20
2018-10-18T11:02:40.774Z,7.30
2018-10-18T11:03:40.721Z,6.40
2018-10-18T11:04:40.706Z,6.50
2018-10-18T11:05:40.649Z,6.40
2018-10-18T11:06:40.614Z,5.90
2018-10-18T11:07:40.581Z,5.90
2018-10-18T11:08:40.559Z,5.60
2018-10-18T11:09:40.611Z,5.90
2018-10-18T11:10:40.505Z,5.50
2018-10-18T11:11:40.452Z,5.50
2018-10-18T11:12:40.421Z,6.00
2018-10-18T11:13:40.390Z,6.40
2018-10-18T11:14:40.360Z,6.20
2018-10-18T11:15:40.350Z,5.30
2018-10-18T11:16:40.281Z,4.70
2018-10-18T11:17:40.253Z,4.70
2018-10-18T11:18:40.217Z,4.60
2018-10-18T11:19:40.185Z,6.40
2018-10-18T11:20:40.183Z,4.60
2018-10-18T11:21:40.214Z,4.70
2018-10-18T11:22:40.102Z,5.10
2018-10-18T11:23:40.105Z,3.80
2018-10-18T11:24:40.030Z,4.00
2018-10-18T11:25:40.014Z,5.30
2018-10-18T11:26:39.967Z,5.20
2018-10-18T11:27:39.946Z,4.90
2018-10-18T11:28:39.894Z,5.30
2018-10-18T11:29:39.859Z,4.10
2018-10-18T11:30:39.857Z,5.30
2018-10-18T11:31:39.788Z,4.00
2018-10-18T11:32:39.763Z,4.80
2018-10-18T11:33:39.732Z,3.80
2018-10-18T11:34:39.708Z,4.90
2018-10-18T11:35:39.663Z,4.10
2018-10-18T11:36:39.646Z,4.80
2018-10-18T11:37:39.592Z,4.90
2018-10-18T11:38:39.560Z,5.30
2018-10-18T11:39:39.522Z,4.20
2018-10-18T11:40:39.499Z,5.00
2018-10-18T11:41:39.489Z,3.60
2018-10-18T11:42:39.467Z,4.80
2018-10-18T11:43:39.394Z,4.20
2018-10-18T11:44:39.388Z,3.90
2018-10-18T11:45:39.335Z,4.80
2018-10-18T11:46:39.328Z,4.30
2018-10-18T11:47:39.270Z,3.90
2018-10-18T11:48:39.226Z,3.90
2018-10-18T11:49:39.203Z,4.90
2018-10-18T11:50:39.163Z,4.30
2018-10-18T11:51:39.255Z,4.10
2018-10-18T11:52:39.126Z,4.20
2018-10-18T11:53:39.072Z,3.60
2018-10-18T11:54:39.037Z,5.10
2018-10-18T11:55:38.998Z,3.90
2018-10-18T11:56:38.983Z,3.50
2018-10-18T11:57:38.929Z,3.70
2018-10-18T11:58:38.901Z,3.40
2018-10-18T11:59:38.864Z,4.00
2018-10-18T12:00:38.827Z,5.80
2018-10-18T12:01:38.816Z,5.20
2018-10-18T12:02:38.818Z,4.90
2018-10-18T12:03:38.721Z,4.30
2018-10-18T12:04:38.699Z,5.40
2018-10-18T12:05:38.667Z,3.90
2018-10-18T12:06:38.634Z,3.50
2018-10-18T12:07:38.619Z,4.20
2018-10-18T12:08:38.554Z,4.60
2018-10-18T12:09:38.520Z,4.20
2018-10-18T12:10:38.487Z,4.40
2018-10-18T12:11:38.456Z,5.10
2018-10-18T12:12:38.447Z,3.40
2018-10-18T12:13:38.420Z,4.10
2018-10-18T12:14:38.355Z,3.60
2018-10-18T12:15:38.317Z,3.30
2018-10-18T12:16:38.291Z,2.90
2018-10-18T12:17:38.257Z,3.30
2018-10-18T12:18:38.223Z,3.30
2018-10-18T12:19:38.210Z,3.40
2018-10-18T12:20:38.147Z,2.90
2018-10-18T12:21:38.115Z,3.20
2018-10-18T12:22:38.109Z,3.30
2018-10-18T12:23:38.040Z,3.60
2018-10-18T12:24:38.025Z,4.70
2018-10-18T12:25:37.985Z,3.90
2018-10-18T12:26:37.953Z,3.20
2018-10-18T12:27:37.915Z,3.70
2018-10-18T12:28:37.895Z,3.10
2018-10-18T12:29:37.842Z,3.00
2018-10-18T12:30:37.812Z,5.60
2018-10-18T12:31:37.777Z,3.60
2018-10-18T12:32:37.737Z,3.40
2018-10-18T12:33:37.721Z,3.80
2018-10-18T12:34:37.670Z,3.40
2018-10-18T12:35:37.658Z,3.70
2018-10-18T12:36:37.605Z,2.80
2018-10-18T12:37:37.572Z,3.40
2018-10-18T12:38:37.565Z,3.60
2018-10-18T12:39:37.604Z,3.90
2018-10-18T12:40:37.675Z,3.70
2018-10-18T12:41:37.599Z,2.90
2018-10-18T12:42:37.392Z,2.50
2018-10-18T12:43:37.389Z,5.10
2018-10-18T12:44:37.327Z,3.10
2018-10-18T12:45:37.317Z,3.10
2018-10-18T12:46:37.252Z,3.00
2018-10-18T12:47:37.217Z,3.40
2018-10-18T12:48:37.265Z,3.60
2018-10-18T12:49:37.152Z,3.60
2018-10-18T12:50:37.142Z,5.00
2018-10-18T12:51:37.091Z,3.20
2018-10-18T12:52:37.044Z,4.10
2018-10-18T12:53:37.035Z,2.90
2018-10-18T12:54:37.046Z,4.30
2018-10-18T12:55:36.941Z,3.20
2018-10-18T12:56:36.908Z,3.50
2018-10-18T12:57:36.870Z,3.20
2018-10-18T12:58:36.836Z,3.40
2018-10-18T12:59:36.823Z,3.70
2018-10-18T13:00:36.761Z,3.00
2018-10-18T13:01:36.725Z,2.70
2018-10-18T13:02:36.734Z,4.80
2018-10-18T13:03:36.664Z,4.40
2018-10-18T13:04:36.642Z,4.10
2018-10-18T13:05:36.578Z,3.40
2018-10-18T13:06:36.547Z,7.30
2018-10-18T13:07:36.513Z,3.10
2018-10-18T13:08:36.484Z,3.40
2018-10-18T13:09:36.472Z,3.50
2018-10-18T13:10:36.447Z,3.00
2018-10-18T13:11:36.377Z,3.70
2018-10-18T13:12:36.381Z,4.50
2018-10-18T13:13:36.299Z,2.90
2018-10-18T13:14:36.285Z,3.50
2018-10-18T13:15:36.225Z,3.20
2018-10-18T13:16:36.196Z,2.90
2018-10-18T13:17:36.160Z,3.30
2018-10-18T13:18:36.117Z,4.10
2018-10-18T13:19:36.109Z,2.50
2018-10-18T13:20:36.051Z,2.60
2018-10-18T13:21:36.019Z,2.80
2018-10-18T13:22:35.980Z,2.50
2018-10-18T13:23:35.943Z,2.60
2018-10-18T13:24:35.905Z,2.80
2018-10-18T13:25:35.887Z,3.10
2018-10-18T13:26:35.829Z,3.00
2018-10-18T13:27:35.791Z,3.90
2018-10-18T13:28:35.763Z,2.70
2018-10-18T13:29:35.726Z,4.20
2018-10-18T13:30:35.716Z,2.30
2018-10-18T13:31:35.655Z,3.30
2018-10-18T13:32:35.611Z,2.40
2018-10-18T13:33:35.580Z,2.60
2018-10-18T13:34:35.548Z,4.30
2018-10-18T13:35:35.513Z,2.40
2018-10-18T13:36:35.487Z,2.90
2018-10-18T13:37:35.429Z,2.30
2018-10-18T13:38:35.395Z,3.90
2018-10-18T13:39:35.370Z,3.40
2018-10-18T13:40:35.400Z,2.70
2018-10-18T13:41:35.291Z,3.10
2018-10-18T13:42:35.257Z,3.40
2018-10-18T13:43:35.227Z,3.70
2018-10-18T13:44:35.176Z,4.50
2018-10-18T13:45:35.138Z,4.60
2018-10-18T13:46:35.229Z,5.00
2018-10-18T13:47:35.065Z,4.70
2018-10-18T13:48:35.037Z,5.90
2018-10-18T13:49:35.000Z,4.50
2018-10-18T13:50:34.954Z,5.00
2018-10-18T13:51:34.918Z,4.50
2018-10-18T13:52:34.914Z,5.70
2018-10-18T13:53:34.855Z,5.70
2018-10-18T13:54:34.824Z,6.70
2018-10-18T13:55:34.779Z,6.20
2018-10-18T13:56:34.740Z,5.90
2018-10-18T13:57:34.729Z,6.00
2018-10-18T13:58:34.665Z,6.30
2018-10-18T13:59:34.682Z,6.20
2018-10-18T14:00:34.606Z,5.10
2018-10-18T14:01:34.561Z,7.70
2018-10-18T14:02:34.530Z,6.10
2018-10-18T14:03:34.512Z,7.60
2018-10-18T14:04:34.451Z,6.70
2018-10-18T14:05:34.488Z,7.50
2018-10-18T14:06:34.382Z,6.60
2018-10-18T14:07:34.344Z,6.80
2018-10-18T14:08:34.360Z,7.10
2018-10-18T14:09:34.268Z,7.30
2018-10-18T14:10:34.230Z,6.80
2018-10-18T14:11:34.196Z,9.10
2018-10-18T14:12:34.161Z,8.00
2018-10-18T14:13:34.146Z,6.60
2018-10-18T14:14:34.114Z,6.90
2018-10-18T14:15:34.060Z,7.20
2018-10-18T14:16:34.009Z,7.20
2018-10-18T14:17:34.025Z,7.70
2018-10-18T14:18:33.936Z,9.30
2018-10-18T14:19:33.921Z,9.10
2018-10-18T14:20:33.873Z,7.90
2018-10-18T14:21:33.838Z,7.90
2018-10-18T14:22:33.789Z,8.10
2018-10-18T14:23:33.752Z,7.70
2018-10-18T14:24:33.745Z,7.30
2018-10-18T14:25:33.710Z,7.60
2018-10-18T14:26:33.652Z,8.00
2018-10-18T14:27:33.613Z,7.60
2018-10-18T14:28:33.568Z,8.40
2018-10-18T14:29:33.537Z,9.20
2018-10-18T14:30:33.536Z,8.10
2018-10-18T14:31:33.456Z,8.90
2018-10-18T14:32:33.430Z,8.50
2018-10-18T14:33:33.392Z,8.80
2018-10-18T14:34:33.357Z,8.00
2018-10-18T14:35:33.319Z,8.20
2018-10-18T14:36:33.300Z,7.60
2018-10-18T14:37:33.241Z,7.90
2018-10-18T14:38:33.288Z,8.10
2018-10-18T14:39:33.172Z,7.90
2018-10-18T14:40:33.128Z,7.90
2018-10-18T14:41:33.115Z,7.50
2018-10-18T14:42:33.053Z,7.00
2018-10-18T14:43:33.017Z,6.90
2018-10-18T14:44:33.193Z,8.30
2018-10-18T14:45:32.951Z,5.90
2018-10-18T14:46:32.942Z,6.50
2018-10-18T14:47:32.911Z,6.40
2018-10-18T14:48:32.831Z,15.80
2018-10-18T14:49:32.796Z,6.30
2018-10-18T14:50:32.918Z,6.10
2018-10-18T14:51:32.719Z,4.90
2018-10-18T14:52:32.715Z,4.30
2018-10-18T14:53:32.668Z,4.20
2018-10-18T14:54:32.669Z,4.70
2018-10-18T14:55:32.573Z,4.00
2018-10-18T14:56:32.550Z,4.50
2018-10-18T14:57:32.526Z,4.00
2018-10-18T14:58:32.472Z,5.10
2018-10-18T14:59:32.432Z,4.90
2018-10-18T15:00:32.386Z,4.10
2018-10-18T15:01:32.348Z,4.00
2018-10-18T15:02:32.334Z,4.60
2018-10-18T15:03:32.303Z,4.60
2018-10-18T15:04:32.308Z,4.10
2018-10-18T15:05:32.207Z,4.80
2018-10-18T15:06:32.169Z,4.10
2018-10-18T15:07:32.129Z,4.30
2018-10-18T15:08:32.087Z,3.50
2018-10-18T15:09:32.073Z,3.20
2018-10-18T15:10:32.029Z,4.60
2018-10-18T15:11:32.003Z,3.20
2018-10-18T15:12:31.979Z,3.50
2018-10-18T15:13:31.910Z,3.60
2018-10-18T15:14:31.862Z,3.50
2018-10-18T15:15:31.822Z,3.80
2018-10-18T15:16:31.819Z,3.60
2018-10-18T15:17:31.785Z,3.80
2018-10-18T15:18:31.809Z,4.00
2018-10-18T15:19:31.683Z,3.80
2018-10-18T15:20:31.646Z,3.80
2018-10-18T15:21:31.633Z,5.10
2018-10-18T15:22:31.563Z,4.60
2018-10-18T15:23:31.526Z,3.60
2018-10-18T15:24:31.494Z,2.90
2018-10-18T15:25:31.656Z,3.10
2018-10-18T15:26:31.543Z,5.50
2018-10-18T15:27:31.495Z,2.70
2018-10-18T15:28:31.341Z,3.70
2018-10-18T15:29:31.306Z,3.40
2018-10-18T15:30:31.273Z,3.10
2018-10-18T15:31:31.232Z,4.00
2018-10-18T15:32:31.337Z,3.10
2018-10-18T15:33:31.167Z,4.20
2018-10-18T15:34:31.117Z,3.20
2018-10-18T15:35:31.078Z,3.00
2018-10-18T15:36:31.047Z,3.50
2018-10-18T15:37:31.010Z,3.20
2018-10-18T15:38:31.113Z,3.00
2018-10-18T15:39:30.996Z,3.10
2018-10-18T15:40:30.888Z,3.50
2018-10-18T15:41:30.857Z,3.40
2018-10-18T15:42:30.820Z,3.10
2018-10-18T15:43:30.803Z,4.00
2018-10-18T15:44:30.742Z,2.70
2018-10-18T15:45:30.702Z,3.50
2018-10-18T15:46:30.685Z,3.40
2018-10-18T15:47:30.632Z,4.00
2018-10-18T15:48:30.627Z,2.50
2018-10-18T15:49:30.584Z,2.80
2018-10-18T15:50:30.524Z,2.50
2018-10-18T15:51:30.477Z,2.80
2018-10-18T15:52:30.459Z,3.60
2018-10-18T15:53:30.467Z,2.90
2018-10-18T15:54:30.401Z,2.90
2018-10-18T15:55:30.319Z,2.90
2018-10-18T15:56:30.290Z,4.00
2018-10-18T15:57:30.277Z,2.80
2018-10-18T15:58:30.233Z,2.40
2018-10-18T15:59:30.169Z,2.80
2018-10-18T16:00:30.140Z,2.40
2018-10-18T16:01:30.101Z,3.70
2018-10-18T16:02:30.099Z,2.40
2018-10-18T16:03:30.025Z,3.10
2018-10-18T16:04:29.979Z,2.70
2018-10-18T16:05:29.942Z,2.50
2018-10-18T16:06:29.903Z,2.40
2018-10-18T16:07:29.863Z,2.60
2018-10-18T16:08:29.881Z,3.00
2018-10-18T16:09:29.795Z,2.50
2018-10-18T16:10:29.762Z,2.30
2018-10-18T16:11:29.778Z,2.20
2018-10-18T16:12:29.682Z,2.30
2018-10-18T16:13:29.664Z,2.50
2018-10-18T16:14:29.608Z,2.70
2018-10-18T16:15:29.569Z,2.40
2018-10-18T16:16:29.525Z,3.00
2018-10-18T16:17:29.493Z,4.50
2018-10-18T16:18:29.473Z,2.60
2018-10-18T16:19:29.432Z,3.80
2018-10-18T16:20:29.378Z,2.80
2018-10-18T16:21:29.341Z,3.60
2018-10-18T16:22:29.294Z,3.50
2018-10-18T16:23:29.255Z,3.30
2018-10-18T16:24:29.251Z,3.20
2018-10-18T16:25:29.211Z,3.60
2018-10-18T16:26:29.213Z,4.80
2018-10-18T16:27:29.115Z,3.50
2018-10-18T16:28:29.067Z,3.70
2018-10-18T16:29:29.032Z,3.20
2018-10-18T16:30:29.023Z,4.00
2018-10-18T16:31:28.960Z,4.30
2018-10-18T16:32:28.923Z,4.10
2018-10-18T16:33:28.876Z,3.60
2018-10-18T16:34:28.839Z,4.30
2018-10-18T16:35:28.801Z,3.30
2018-10-18T16:36:28.791Z,3.20
2018-10-18T16:37:28.731Z,3.20
2018-10-18T16:38:28.693Z,4.10
2018-10-18T16:39:28.654Z,5.00
2018-10-18T16:40:28.609Z,3.60
2018-10-18T16:41:28.677Z,3.80
2018-10-18T16:42:28.535Z,4.60
2018-10-18T16:43:28.489Z,3.20
2018-10-18T16:44:28.459Z,4.30
2018-10-18T16:45:28.447Z,4.90
2018-10-18T16:46:28.376Z,6.10
2018-10-18T16:47:28.333Z,4.10
2018-10-18T16:48:29.159Z,5.90
2018-10-18T16:49:28.267Z,5.80
2018-10-18T16:50:28.249Z,6.10
2018-10-18T16:51:28.197Z,6.30
2018-10-18T16:52:28.142Z,5.90
2018-10-18T16:53:28.104Z,6.70
2018-10-18T16:54:28.123Z,6.50
2018-10-18T16:55:28.029Z,6.70
2018-10-18T16:56:27.994Z,6.20
2018-10-18T16:57:27.982Z,6.90
2018-10-18T16:58:27.917Z,6.70
2018-10-18T16:59:27.878Z,6.50
2018-10-18T17:00:27.854Z,6.60
2018-10-18T17:01:27.795Z,6.20
2018-10-18T17:02:27.765Z,6.10
2018-10-18T17:03:27.720Z,6.60
2018-10-18T17:04:27.856Z,7.40
2018-10-18T17:05:27.668Z,7.10
2018-10-18T17:06:27.619Z,6.70
2018-10-18T17:07:27.565Z,7.40
2018-10-18T17:08:27.528Z,7.20
2018-10-18T17:09:27.491Z,7.00
2018-10-18T17:10:27.483Z,7.10
2018-10-18T17:11:27.440Z,6.80
2018-10-18T17:12:27.365Z,6.80
2018-10-18T17:13:27.327Z,6.50
2018-10-18T17:14:27.287Z,6.60
2018-10-18T17:15:27.270Z,7.10
2018-10-18T17:16:27.214Z,7.40
2018-10-18T17:17:27.181Z,6.40
2018-10-18T17:18:27.294Z,5.70
2018-10-18T17:19:27.100Z,6.10
2018-10-18T17:20:27.234Z,6.30
2018-10-18T17:21:27.020Z,7.80
2018-10-18T17:22:26.983Z,6.70
2018-10-18T17:23:26.950Z,6.20
2018-10-18T17:24:26.924Z,8.30
2018-10-18T17:25:26.857Z,6.30
2018-10-18T17:26:26.862Z,6.80
2018-10-18T17:27:26.878Z,6.40
2018-10-18T17:28:26.752Z,6.70
2018-10-18T17:29:26.733Z,8.00
2018-10-18T17:30:26.671Z,6.70
2018-10-18T17:31:26.631Z,7.60
2018-10-18T17:32:26.616Z,7.40
2018-10-18T17:33:26.547Z,7.40
2018-10-18T17:34:26.540Z,7.20
2018-10-18T17:35:26.494Z,8.20
2018-10-18T17:36:26.433Z,8.10
2018-10-18T17:37:26.389Z,7.90
2018-10-18T17:38:26.365Z,8.30
2018-10-18T17:39:26.311Z,8.30
2018-10-18T17:40:26.317Z,8.80
2018-10-18T17:41:26.248Z,8.30
2018-10-18T17:42:26.202Z,9.20
2018-10-18T17:43:26.162Z,8.40
2018-10-18T17:44:26.138Z,8.20
2018-10-18T17:45:26.103Z,8.50
2018-10-18T17:46:26.038Z,7.70
2018-10-18T17:47:26.003Z,8.40
2018-10-18T17:48:25.971Z,7.90
2018-10-18T17:49:25.933Z,8.20
2018-10-18T17:50:25.881Z,8.10
2018-10-18T17:51:25.885Z,7.30
2018-10-18T17:52:25.854Z,7.70
2018-10-18T17:53:25.801Z,7.80
2018-10-18T17:54:25.741Z,7.80
2018-10-18T17:55:25.715Z,8.50
2018-10-18T17:56:25.675Z,8.10
2018-10-18T17:57:25.615Z,9.30
2018-10-18T17:58:25.578Z,8.90
2018-10-18T17:59:25.537Z,9.00
2018-10-18T18:00:25.565Z,9.50
2018-10-18T18:01:25.522Z,9.10
2018-10-18T18:02:25.439Z,9.60
2018-10-18T18:03:25.387Z,9.00
2018-10-18T18:04:25.335Z,9.70
2018-10-18T18:05:25.304Z,10.20
2018-10-18T18:06:25.453Z,10.00
2018-10-18T18:07:25.228Z,9.50
2018-10-18T18:08:25.179Z,9.90
2018-10-18T18:09:25.192Z,11.30
2018-10-18T18:10:25.109Z,10.80
2018-10-18T18:11:25.071Z,10.20
2018-10-18T18:12:25.050Z,10.90
2018-10-18T18:13:24.999Z,10.10
2018-10-18T18:14:24.986Z,11.20
2018-10-18T18:15:24.911Z,10.50
2018-10-18T18:16:24.892Z,12.00
2018-10-18T18:17:24.824Z,11.20
2018-10-18T18:18:24.789Z,11.00
2018-10-18T18:19:24.748Z,11.00
2018-10-18T18:20:24.749Z,11.20
2018-10-18T18:21:24.712Z,11.60
2018-10-18T18:22:24.629Z,11.80
2018-10-18T18:23:24.595Z,11.40
2018-10-18T18:24:24.569Z,12.40
2018-10-18T18:25:24.567Z,12.30
2018-10-18T18:26:32.544Z,12.00
2018-10-18T18:27:24.483Z,11.80
2018-10-18T18:28:24.446Z,12.70
2018-10-18T18:29:24.376Z,13.40
2018-10-18T18:30:24.321Z,12.20
2018-10-18T18:31:24.292Z,12.30
2018-10-18T18:32:24.257Z,12.40
2018-10-18T18:33:24.241Z,13.10
2018-10-18T18:34:24.177Z,13.10
2018-10-18T18:35:24.143Z,12.60
2018-10-18T18:36:24.582Z,12.30
2018-10-18T18:37:24.084Z,12.80
2018-10-18T18:38:24.053Z,12.50
2018-10-18T18:39:23.987Z,12.00
2018-10-18T18:40:23.931Z,12.90
2018-10-18T18:41:23.891Z,12.80
2018-10-18T18:42:23.855Z,13.30
2018-10-18T18:43:23.833Z,13.60
2018-10-18T18:44:23.775Z,12.80
2018-10-18T18:45:35.541Z,13.40
2018-10-18T18:46:24.610Z,12.80
2018-10-18T18:47:24.665Z,12.90
2018-10-18T18:48:23.794Z,12.20
2018-10-18T18:49:23.601Z,12.80
2018-10-18T18:50:23.560Z,12.90
2018-10-18T18:51:23.622Z,12.70
2018-10-18T18:52:23.495Z,12.50
2018-10-18T18:53:23.513Z,12.30
2018-10-18T18:54:23.459Z,11.70
2018-10-18T18:55:23.367Z,11.60
2018-10-18T18:56:23.319Z,12.40
2018-10-18T18:57:23.303Z,12.00
2018-10-18T18:58:23.316Z,11.70
2018-10-18T18:59:23.210Z,12.40
2018-10-18T19:00:23.234Z,12.60
2018-10-18T19:01:23.149Z,12.60
2018-10-18T19:02:23.083Z,12.40
2018-10-18T19:03:23.036Z,13.10
2018-10-18T19:04:23.013Z,12.90
2018-10-18T19:05:22.956Z,13.20
2018-10-18T19:06:22.963Z,13.30
2018-10-18T19:07:22.912Z,13.40
2018-10-18T19:08:22.875Z,13.30
2018-10-18T19:09:22.823Z,13.10
2018-10-18T19:10:22.754Z,13.30
2018-10-18T19:11:22.819Z,13.00
2018-10-18T19:12:22.764Z,12.10
2018-10-18T19:13:22.707Z,13.00
2018-10-18T19:14:22.639Z,13.00
2018-10-18T19:15:22.569Z,13.00
2018-10-18T19:16:22.565Z,12.30
2018-10-18T19:17:22.511Z,12.90
2018-10-18T19:18:22.447Z,12.20
2018-10-18T19:19:22.409Z,12.40
2018-10-18T19:20:22.373Z,12.20
2018-10-18T19:21:22.391Z,12.70
2018-10-18T19:22:22.292Z,11.60
2018-10-18T19:23:22.320Z,13.00
2018-10-18T19:24:22.204Z,12.80
2018-10-18T19:25:22.183Z,13.20
2018-10-18T19:26:22.194Z,13.70
2018-10-18T19:27:22.153Z,12.10
2018-10-18T19:28:22.046Z,13.90
2018-10-18T19:29:22.001Z,13.80
2018-10-18T19:30:21.956Z,14.60
2018-10-18T19:31:21.957Z,13.30
2018-10-18T19:32:21.881Z,13.00
2018-10-18T19:33:21.838Z,12.80
2018-10-18T19:34:21.825Z,12.60
2018-10-18T19:35:21.792Z,13.10
2018-10-18T19:36:21.738Z,15.30
2018-10-18T19:37:21.712Z,12.80
2018-10-18T19:38:21.656Z,13.40
2018-10-18T19:39:21.620Z,14.50
2018-10-18T19:40:21.573Z,15.70
2018-10-18T19:41:21.567Z,13.30
2018-10-18T19:42:21.488Z,13.30
2018-10-18T19:43:21.455Z,13.50
2018-10-18T19:44:21.412Z,12.80
2018-10-18T19:45:21.366Z,14.30
2018-10-18T19:46:21.444Z,13.60
2018-10-18T19:47:21.290Z,12.50
2018-10-18T19:48:21.278Z,14.50
2018-10-18T19:49:21.228Z,12.30
2018-10-18T19:50:21.177Z,16.10
2018-10-18T19:51:21.163Z,16.20
2018-10-18T19:52:21.225Z,12.20
2018-10-18T19:53:21.048Z,13.10
2018-10-18T19:54:21.075Z,13.10
2018-10-18T19:55:20.978Z,12.70
2018-10-18T19:56:20.935Z,12.10
2018-10-18T19:57:20.889Z,13.50
2018-10-18T19:58:20.889Z,13.90
2018-10-18T19:59:20.829Z,12.90
2018-10-18T20:00:20.810Z,13.60
2018-10-18T20:01:20.728Z,12.40
2018-10-18T20:02:20.693Z,17.40
2018-10-18T20:03:20.650Z,13.50
2018-10-18T20:04:20.642Z,13.50
2018-10-18T20:05:20.577Z,18.10
2018-10-18T20:06:20.544Z,14.60
2018-10-18T20:07:20.563Z,14.70
2018-10-18T20:08:20.488Z,15.20
2018-10-18T20:09:20.422Z,16.10
2018-10-18T20:10:20.432Z,18.00
2018-10-18T20:11:20.342Z,18.60
2018-10-18T20:12:20.330Z,16.30
2018-10-18T20:13:20.291Z,17.20
2018-10-18T20:14:20.223Z,17.80
2018-10-18T20:15:20.170Z,16.90
2018-10-18T20:16:20.180Z,16.90
2018-10-18T20:17:20.109Z,17.30
2018-10-18T20:18:20.134Z,17.00
2018-10-18T20:19:20.028Z,17.00
2018-10-18T20:20:19.984Z,17.50
2018-10-18T20:21:19.953Z,20.10
2018-10-18T20:22:19.950Z,18.90
2018-10-18T20:23:19.904Z,15.70
2018-10-18T20:24:19.824Z,18.20
2018-10-18T20:25:19.881Z,19.70
2018-10-18T20:26:20.176Z,18.80
2018-10-18T20:27:19.708Z,20.20
2018-10-18T20:28:19.675Z,20.50
2018-10-18T20:29:19.656Z,18.80
2018-10-18T20:30:19.631Z,20.10
2018-10-18T20:31:19.562Z,19.10
2018-10-18T20:32:19.569Z,21.50
2018-10-18T20:33:19.466Z,22.80
2018-10-18T20:34:19.482Z,20.70
2018-10-18T20:35:19.389Z,22.70
2018-10-18T20:36:19.343Z,20.60
2018-10-18T20:37:19.299Z,20.30
2018-10-18T20:38:19.273Z,22.00
2018-10-18T20:39:19.365Z,19.40
2018-10-18T20:40:19.209Z,21.90
2018-10-18T20:41:19.142Z,23.00
2018-10-18T20:42:19.122Z,19.40
2018-10-18T20:43:19.088Z,17.70
2018-10-18T20:44:19.024Z,18.90
2018-10-18T20:45:19.030Z,19.10
2018-10-18T20:46:18.945Z,18.40
2018-10-18T20:47:19.019Z,16.60
2018-10-18T20:48:18.903Z,18.50
2018-10-18T20:49:18.924Z,19.60
2018-10-18T20:50:18.824Z,17.40
2018-10-18T20:51:18.790Z,17.80
2018-10-18T20:52:18.754Z,18.20
2018-10-18T20:53:18.721Z,18.70
2018-10-18T20:54:18.635Z,18.10
2018-10-18T20:55:18.677Z,19.40
2018-10-18T20:56:18.537Z,14.80
2018-10-18T20:57:18.511Z,15.10
2018-10-18T20:58:18.473Z,16.10
2018-10-18T20:59:18.437Z,17.50
2018-10-18T21:00:18.474Z,18.00
2018-10-18T21:01:18.373Z,17.80
2018-10-18T21:02:18.326Z,18.20
2018-10-18T21:03:18.270Z,14.60
2018-10-18T21:04:18.236Z,16.20
2018-10-18T21:05:18.216Z,17.50
2018-10-18T21:06:18.196Z,19.40
2018-10-18T21:07:18.112Z,17.00
2018-10-18T21:08:18.063Z,18.90
2018-10-18T21:09:18.026Z,18.50
2018-10-18T21:10:18.002Z,18.80
2018-10-18T21:11:18.001Z,19.60
2018-10-18T21:12:17.910Z,18.80
2018-10-18T21:13:17.886Z,17.50
2018-10-18T21:14:17.837Z,21.10
2018-10-18T21:15:17.832Z,19.20
2018-10-18T21:16:17.764Z,19.30
2018-10-18T21:17:17.728Z,22.60
2018-10-18T21:18:17.667Z,18.40
2018-10-18T21:19:17.622Z,23.90
2018-10-18T21:20:17.610Z,20.40
2018-10-18T21:21:17.582Z,21.20
2018-10-18T21:22:17.569Z,19.90
2018-10-18T21:23:17.613Z,22.80
2018-10-18T21:24:17.433Z,25.60
2018-10-18T21:25:17.413Z,24.20
2018-10-18T21:26:17.362Z,23.40
2018-10-18T21:27:17.319Z,25.10
2018-10-18T21:28:17.296Z,25.10
2018-10-18T21:29:17.240Z,27.10
2018-10-18T21:30:17.220Z,25.20
2018-10-18T21:31:17.162Z,27.70
2018-10-18T21:32:17.110Z,27.60
2018-10-18T21:33:17.079Z,26.90
2018-10-18T21:34:17.080Z,30.00
2018-10-18T21:35:17.114Z,30.70
2018-10-18T21:36:16.962Z,31.70
2018-10-18T21:37:16.928Z,31.40
2018-10-18T21:38:16.903Z,34.00
2018-10-18T21:39:16.847Z,31.50
2018-10-18T21:40:16.797Z,32.90
2018-10-18T21:41:16.795Z,34.40
2018-10-18T21:42:16.717Z,32.20
2018-10-18T21:43:16.679Z,37.00
2018-10-18T21:44:16.647Z,33.10
2018-10-18T21:45:16.612Z,33.90
2018-10-18T21:46:16.587Z,33.20
2018-10-18T21:47:16.602Z,37.00
2018-10-18T21:48:16.481Z,36.20
2018-10-18T21:49:16.472Z,36.00
2018-10-18T21:50:16.407Z,35.00
2018-10-18T21:51:16.444Z,36.70
2018-10-18T21:52:16.330Z,35.20
2018-10-18T21:53:16.279Z,35.70
2018-10-18T21:54:16.263Z,39.10
2018-10-18T21:55:16.210Z,37.20
2018-10-18T21:56:16.159Z,36.90
2018-10-18T21:57:16.188Z,36.80
2018-10-18T21:58:16.169Z,38.10
2018-10-18T21:59:16.080Z,38.60
